Shenstone, United Kingdom
Current Conditions -  °F | °C
As of 2:20 AM on Saturday 29 Nov 2014 (Local Time) from EGBB Reporting Station
Drizzle Drizzle  
Wind Chill: 50°   Ceiling: 500
Heat Index: 50°   Visibility: 2.1mi
Dew Point: 48°   Wind: 7mph
Humidity: 94%   Direction: 60°ENE
Pressure: 29.77"   Gusts: NA
Location:  52.63°N, 1.83°W
Report Text: EGBB 290220Z AUTO 06006KT 030V090 3500 -DZ BKN005/// OVC009/// 10/09 Q1008 REDZ
Loading
Personal Weather Stations






























Interactive Weather Map New forecast layout! Learn more

10-Day Weather Forecast

Advertisements
Track Severe Weather on mobile